createdAt,value
2022-09-12T00:01:39.995Z,34.50
2022-09-12T00:06:42.167Z,36.60
2022-09-12T00:11:45.820Z,35.00
2022-09-12T00:16:47.547Z,34.50
2022-09-12T00:21:49.121Z,37.08
2022-09-12T00:26:50.703Z,37.38
2022-09-12T00:31:52.295Z,34.05
2022-09-12T00:36:53.836Z,30.42
2022-09-12T00:41:55.960Z,32.22
2022-09-12T00:47:11.271Z,26.85
2022-09-12T00:52:16.074Z,27.02
2022-09-12T00:57:18.153Z,26.58
2022-09-12T01:02:20.221Z,26.13
2022-09-12T01:07:22.110Z,27.05
2022-09-12T01:12:24.277Z,31.63
2022-09-12T01:17:37.679Z,28.63
2022-09-12T01:22:45.186Z,28.88
2022-09-12T01:28:05.091Z,28.30
2022-09-12T01:33:39.229Z,25.73
2022-09-12T01:38:50.304Z,25.33
2022-09-12T01:44:19.910Z,25.23
2022-09-12T01:49:58.847Z,26.00
2022-09-12T01:55:16.474Z,31.45
2022-09-12T02:00:18.162Z,33.60
2022-09-12T02:05:31.195Z,27.38
2022-09-12T02:10:41.651Z,26.67
2022-09-12T02:15:52.598Z,24.67
2022-09-12T02:20:56.386Z,24.25
2022-09-12T02:26:04.573Z,28.02
2022-09-12T02:31:14.902Z,34.97
2022-09-12T02:36:30.919Z,43.13
2022-09-12T02:41:32.582Z,38.30
2022-09-12T02:46:42.802Z,35.58
2022-09-12T02:51:46.533Z,34.13
2022-09-12T02:56:48.269Z,31.65
2022-09-12T03:02:04.590Z,28.98
2022-09-12T03:07:12.582Z,31.90
2022-09-12T03:12:36.011Z,29.50
2022-09-12T03:17:43.623Z,27.38
2022-09-12T03:23:00.948Z,26.02
2022-09-12T03:28:09.650Z,29.58
2022-09-12T03:33:15.704Z,30.95
2022-09-12T03:38:17.535Z,29.02
2022-09-12T03:43:19.385Z,29.20
2022-09-12T03:48:21.194Z,28.08
2022-09-12T03:53:22.771Z,26.00
2022-09-12T03:58:25.498Z,21.88
2022-09-12T04:03:27.021Z,26.33
2022-09-12T04:08:28.902Z,28.02
2022-09-12T04:13:30.500Z,29.10
2022-09-12T04:18:33.073Z,29.95
2022-09-12T04:23:35.412Z,25.42
2022-09-12T04:28:38.158Z,23.00
2022-09-12T04:33:40.142Z,23.50
2022-09-12T04:38:42.249Z,24.27
2022-09-12T04:43:46.573Z,24.20
2022-09-12T04:48:51.355Z,24.55
2022-09-12T04:53:59.984Z,23.75
2022-09-12T04:59:01.802Z,24.73
2022-09-12T05:04:03.856Z,24.55
2022-09-12T05:09:07.425Z,29.27
2022-09-12T05:14:10.969Z,33.33
2022-09-12T05:19:12.678Z,35.50
2022-09-12T05:24:14.386Z,33.42
2022-09-12T05:29:16.415Z,31.33
2022-09-12T05:34:18.826Z,28.50
2022-09-12T05:39:20.617Z,30.88
2022-09-12T05:44:22.330Z,32.08
2022-09-12T05:49:24.514Z,31.58
2022-09-12T05:54:31.399Z,29.30
2022-09-12T05:59:33.509Z,27.17
2022-09-12T06:04:35.231Z,28.92
2022-09-12T06:09:36.942Z,25.52
2022-09-12T06:14:38.919Z,30.35
2022-09-12T06:19:40.599Z,30.48
2022-09-12T06:24:42.400Z,32.28
2022-09-12T06:29:44.112Z,31.10
2022-09-12T06:34:48.493Z,30.85
2022-09-12T06:39:50.308Z,30.48
2022-09-12T06:44:52.115Z,31.17
2022-09-12T06:49:53.860Z,29.80
2022-09-12T06:54:55.555Z,27.55
2022-09-12T06:59:57.327Z,27.48
2022-09-12T07:04:59.072Z,25.27
2022-09-12T07:10:00.805Z,22.75
2022-09-12T07:15:02.517Z,26.65
2022-09-12T07:20:04.579Z,23.88
2022-09-12T07:25:06.616Z,24.77
2022-09-12T07:30:08.588Z,25.05
2022-09-12T07:35:10.271Z,23.60
2022-09-12T07:40:12.050Z,23.08
2022-09-12T07:45:13.891Z,22.70
2022-09-12T07:50:15.705Z,30.13
2022-09-12T07:55:17.693Z,29.23
2022-09-12T08:00:19.425Z,27.70
2022-09-12T08:05:21.170Z,25.45
2022-09-12T08:10:22.924Z,26.83
2022-09-12T08:15:25.074Z,24.60
2022-09-12T08:20:28.514Z,22.63
2022-09-12T08:25:31.182Z,21.98
2022-09-12T08:30:32.916Z,21.48
2022-09-12T08:35:34.632Z,23.13
2022-09-12T08:41:03.703Z,22.00
2022-09-12T08:46:18.510Z,20.65
2022-09-12T08:51:20.937Z,15.95
2022-09-12T08:56:23.271Z,17.83
2022-09-12T09:01:38.094Z,17.80
2022-09-12T09:07:15.479Z,14.80
2022-09-12T09:12:53.839Z,13.20
2022-09-12T09:18:11.449Z,12.20
2022-09-12T09:23:20.099Z,11.52
2022-09-12T09:28:38.857Z,13.07
2022-09-12T09:33:40.657Z,13.52
2022-09-12T09:38:54.232Z,13.27
2022-09-12T09:43:57.585Z,14.98
2022-09-12T09:49:03.359Z,13.05
2022-09-12T09:54:25.606Z,14.73
2022-09-12T09:59:33.695Z,13.90
2022-09-12T10:04:41.571Z,14.10
2022-09-12T10:10:14.410Z,13.13
2022-09-12T10:15:29.319Z,12.75
2022-09-12T10:20:40.471Z,13.10
2022-09-12T10:25:47.831Z,13.07
2022-09-12T10:30:56.472Z,13.73
2022-09-12T10:35:58.467Z,13.70
2022-09-12T10:41:06.635Z,14.10
2022-09-12T10:46:17.565Z,13.95
2022-09-12T10:51:25.489Z,13.45
2022-09-12T10:56:47.311Z,14.13
2022-09-12T11:02:10.058Z,13.98
2022-09-12T11:07:18.421Z,13.63
2022-09-12T11:12:49.531Z,12.38
2022-09-12T11:18:18.498Z,12.73
2022-09-12T11:23:23.303Z,12.57
2022-09-12T11:28:53.403Z,12.13
2022-09-12T11:33:57.879Z,11.90
2022-09-12T11:39:45.978Z,13.50
2022-09-12T11:44:59.188Z,13.05
2022-09-12T11:50:05.609Z,13.40
2022-09-12T11:55:17.934Z,13.35
2022-09-12T12:00:22.467Z,13.85
2022-09-12T12:05:58.508Z,13.32
2022-09-12T12:11:02.824Z,13.05
2022-09-12T12:16:12.913Z,12.05
2022-09-12T12:21:36.389Z,12.50
2022-09-12T12:26:41.150Z,12.45
2022-09-12T12:32:04.039Z,12.07
2022-09-12T12:37:25.599Z,12.10
2022-09-12T12:42:32.134Z,12.82
2022-09-12T12:47:43.132Z,13.02
2022-09-12T12:52:59.908Z,12.07
2022-09-12T12:58:04.678Z,11.35
2022-09-12T13:03:06.712Z,12.75
2022-09-12T13:08:10.575Z,12.73
2022-09-12T13:13:25.574Z,13.70
2022-09-12T13:18:43.432Z,12.88
2022-09-12T13:24:00.707Z,12.52
2022-09-12T13:29:10.465Z,12.70
2022-09-12T13:34:22.287Z,12.38
2022-09-12T13:39:52.085Z,13.38
2022-09-12T13:45:13.472Z,12.75
2022-09-12T13:50:20.321Z,12.48
2022-09-12T13:55:38.287Z,12.93
2022-09-12T14:00:40.135Z,12.07
2022-09-12T14:05:45.100Z,12.20
2022-09-12T14:10:50.312Z,13.23
2022-09-12T14:15:54.742Z,13.27
2022-09-12T14:21:02.143Z,13.63
2022-09-12T14:26:06.889Z,14.15
2022-09-12T14:31:15.763Z,14.35
2022-09-12T14:36:22.951Z,14.20
2022-09-12T14:41:29.698Z,13.98
2022-09-12T14:46:37.391Z,14.02
2022-09-12T14:51:51.248Z,14.18
2022-09-12T14:56:59.714Z,13.75
2022-09-12T15:02:13.893Z,14.25
2022-09-12T15:07:26.721Z,14.30
2022-09-12T15:12:28.501Z,14.65
2022-09-12T15:17:30.456Z,14.88
2022-09-12T15:22:33.160Z,14.45
2022-09-12T15:27:41.012Z,14.05
2022-09-12T15:32:44.164Z,14.93
2022-09-12T15:37:45.893Z,14.88
2022-09-12T15:42:47.605Z,15.18
2022-09-12T15:47:49.541Z,15.32
2022-09-12T15:52:51.323Z,14.75
2022-09-12T15:57:53.097Z,15.20
2022-09-12T16:02:54.882Z,14.90
2022-09-12T16:07:56.703Z,14.88
2022-09-12T16:12:58.613Z,14.75
2022-09-12T16:18:00.393Z,14.43
2022-09-12T16:23:02.224Z,14.48
2022-09-12T16:28:05.989Z,14.38
2022-09-12T16:33:08.940Z,14.80
2022-09-12T16:38:10.664Z,14.13
2022-09-12T16:43:12.435Z,13.43
2022-09-12T16:48:14.198Z,14.02
2022-09-12T16:53:16.288Z,13.32
2022-09-12T16:58:18.031Z,13.70
2022-09-12T17:03:19.755Z,13.35
2022-09-12T17:08:22.940Z,13.82
2022-09-12T17:13:29.770Z,14.35
2022-09-12T17:18:43.340Z,15.00
2022-09-12T17:23:45.278Z,19.88
2022-09-12T17:28:47.257Z,16.80
2022-09-12T17:33:49.132Z,16.15
2022-09-12T17:38:51.861Z,16.20
2022-09-12T17:43:57.397Z,16.75
2022-09-12T17:49:01.020Z,16.88
2022-09-12T17:54:05.565Z,17.63
2022-09-12T17:59:09.001Z,16.75
2022-09-12T18:04:10.961Z,15.88
2022-09-12T18:09:12.753Z,15.80
2022-09-12T18:14:14.831Z,14.55
2022-09-12T18:19:18.758Z,13.73
2022-09-12T18:24:21.063Z,14.48
2022-09-12T18:29:23.523Z,14.20
2022-09-12T18:34:25.304Z,15.02
2022-09-12T18:39:28.017Z,15.07
2022-09-12T18:44:29.917Z,15.63
2022-09-12T18:49:31.798Z,16.77
2022-09-12T18:54:34.003Z,22.50
2022-09-12T18:59:35.824Z,25.30
2022-09-12T19:04:37.610Z,20.20
2022-09-12T19:09:39.534Z,17.98
2022-09-12T19:14:41.310Z,17.23
2022-09-12T19:19:43.039Z,21.88
2022-09-12T19:24:44.795Z,19.55
2022-09-12T19:29:46.683Z,28.85
2022-09-12T19:34:48.525Z,30.20
2022-09-12T19:39:50.311Z,23.60
2022-09-12T19:44:55.776Z,20.88
2022-09-12T19:49:57.490Z,17.73
2022-09-12T19:54:59.205Z,18.05
2022-09-12T20:00:01.061Z,17.45
2022-09-12T20:05:02.780Z,16.23
2022-09-12T20:10:04.971Z,15.75
2022-09-12T20:15:08.092Z,18.10
2022-09-12T20:20:10.648Z,17.10
2022-09-12T20:25:12.431Z,18.08
2022-09-12T20:30:15.107Z,16.48
2022-09-12T20:35:17.363Z,16.80
2022-09-12T20:40:19.143Z,17.27
2022-09-12T20:45:20.913Z,15.10
2022-09-12T20:50:22.627Z,14.93
2022-09-12T20:55:24.565Z,15.73
2022-09-12T21:00:26.273Z,14.40
2022-09-12T21:05:27.974Z,15.38
2022-09-12T21:10:31.060Z,14.98
2022-09-12T21:15:32.785Z,15.90
2022-09-12T21:20:34.925Z,14.32
2022-09-12T21:25:36.638Z,15.73
2022-09-12T21:30:39.005Z,13.95
2022-09-12T21:35:40.768Z,14.13
2022-09-12T21:40:42.730Z,13.70
2022-09-12T21:45:44.571Z,14.30
2022-09-12T21:50:50.668Z,14.13
2022-09-12T21:55:52.430Z,14.02
2022-09-12T22:00:54.203Z,13.73
2022-09-12T22:06:01.566Z,13.07
2022-09-12T22:11:09.340Z,13.35
2022-09-12T22:16:12.190Z,13.23
2022-09-12T22:21:17.672Z,13.02
2022-09-12T22:26:19.487Z,13.25
2022-09-12T22:31:21.659Z,13.50
2022-09-12T22:36:24.915Z,13.68
2022-09-12T22:41:29.050Z,13.48
2022-09-12T22:46:30.873Z,13.55
2022-09-12T22:51:33.293Z,13.15
2022-09-12T22:56:35.447Z,13.40
2022-09-12T23:01:37.228Z,13.60
2022-09-12T23:06:38.985Z,14.00
2022-09-12T23:11:40.675Z,12.70
2022-09-12T23:16:42.369Z,13.85
2022-09-12T23:21:44.556Z,13.48
2022-09-12T23:26:46.339Z,13.70
2022-09-12T23:31:48.731Z,13.02
2022-09-12T23:36:50.512Z,13.77
2022-09-12T23:41:52.326Z,13.63
2022-09-12T23:46:54.025Z,13.70
2022-09-12T23:51:55.775Z,12.63
2022-09-12T23:56:57.557Z,12.57
